KACT

Waco Regional Airport

Waco, Texas, USA
METAR KACT 190851Z AUTO 01005KT 10SM OVC021 15/13 A3020 RMK AO2 SLP224 T01500133 58013
Observed Flight Rules
Oct-19 @ 08:51 UTC (50 minutes ago) Marginal Visual Flight Rules
Wind Visibility Clouds
10° at 5 knots 10 miles
  • Overcast at 2,100' AGL
Temperatures Readings
Current 15°C / 59°F
Dewpoint 13°C / 55°F
Humidity 88%
Altimeter 30.2" Hg
Pressure 1022.4 hPa
Elevation 151
METAR KACT 190851Z AUTO 01005KT 10SM OVC021 15/13 A3020 RMK AO2 SLP224 T01500133 58013
Observed Flight Rules
Oct-19 @ 08:51 UTC
(50 minutes ago)
MVFR
Wind Visibility
10° at 5 knots 10 miles
Clouds
  • Overcast at 2,100' AGL
Temperature Dewpoint
15°C / 59°F 13°C / 55°F
Humidity Altimeter Pressure
88% 30.2" Hg 1022.4 hPa